Weather at Tierp Airfield

Public forecast

Using degrees Celsius for public forecast. Weather courtesy of forecast.io.

Closest aviation weather report (METAR) to Tierp Airfield

Closest report is Ärna Air Base, 27.7 nm (51.2 km) S.

2024/06/23 05:20 (retrieved 35 minutes ago)

ESCM 230520Z AUTO 02006KT 9999 OVC120/// 14/11 Q1009

Closest aviation forecast (TAF) to Tierp Airfield

Forecast is more than 12 hours old.

Closest forecast is Ämari Air Base, 215.1 nm (398.4 km) ESE.

2024/06/21 10:29 (retrieved 2 days ago)

TAF EEEI 211027Z 2110/2206 CNL